Time;durP1;ratioP1;P1;durP2;ratioP2;P2;SDS_P1;SDS_P2;PMS_P1;PMS_P2;Temp;Humidity;BMP_temperature;BMP_pressure;BME280_temperature;BME280_humidity;BME280_pressure;Samples;Min_cycle;Max_cycle;Signal;HPM_P1;HPM_P2
2022/07/14 00:00:22;;;;;;;15.23;3.60;;;;;;;19.57;62.46;102010.44;5032437;28;20030;-70
2022/07/14 00:02:48;;;;;;;15.45;3.13;;;;;;;19.48;62.65;102005.13;5032295;28;20125;-70
2022/07/14 00:05:14;;;;;;;12.10;3.20;;;;;;;19.51;62.78;102000.63;5034570;28;20025;-69
2022/07/14 00:07:39;;;;;;;11.82;3.45;;;;;;;19.50;62.47;102000.66;5036047;28;20036;-69
2022/07/14 00:10:05;;;;;;;10.27;3.13;;;;;;;19.50;62.67;102003.34;5036029;28;20433;-69
2022/07/14 00:12:30;;;;;;;10.60;3.25;;;;;;;19.36;62.69;102000.78;5035888;28;20382;-70
2022/07/14 00:14:56;;;;;;;14.30;3.30;;;;;;;19.44;62.69;102016.78;5035810;28;20426;-70
2022/07/14 00:17:21;;;;;;;10.30;3.20;;;;;;;19.32;62.76;102011.53;5035550;28;20018;-70
2022/07/14 00:19:47;;;;;;;10.75;3.20;;;;;;;19.44;62.33;102000.69;5035664;28;20064;-70
2022/07/14 00:22:12;;;;;;;8.68;2.83;;;;;;;19.47;61.97;101993.53;5036015;28;20068;-69
2022/07/14 00:24:38;;;;;;;10.93;3.00;;;;;;;19.44;62.45;101979.25;5035669;28;20025;-69
2022/07/14 00:27:03;;;;;;;7.85;2.80;;;;;;;19.36;62.42;101978.44;5035695;28;20136;-69
2022/07/14 00:29:29;;;;;;;11.60;3.13;;;;;;;19.34;62.33;101970.41;5035451;28;20533;-69
2022/07/14 00:31:54;;;;;;;10.85;3.30;;;;;;;19.36;63.03;101973.09;5035559;28;20433;-69
2022/07/14 00:34:19;;;;;;;9.88;3.15;;;;;;;19.20;62.98;101973.19;5035231;28;20022;-69
2022/07/14 00:36:45;;;;;;;7.20;2.90;;;;;;;19.07;63.61;101990.25;5035500;28;20029;-70
2022/07/14 00:39:11;;;;;;;11.60;2.97;;;;;;;19.00;63.52;101994.72;5035526;28;20442;-70
2022/07/14 00:41:36;;;;;;;9.68;2.90;;;;;;;19.10;63.64;101997.34;5035174;28;20120;-70
2022/07/14 00:44:02;;;;;;;9.65;3.00;;;;;;;19.09;64.28;101990.22;5035232;28;20032;-70
2022/07/14 00:46:27;;;;;;;7.50;3.00;;;;;;;19.12;64.18;102001.81;5035339;28;20025;-70
2022/07/14 00:48:52;;;;;;;9.88;3.05;;;;;;;19.07;63.79;101998.28;5035259;28;20108;-69
2022/07/14 00:51:18;;;;;;;13.05;3.05;;;;;;;19.11;63.76;101997.38;5035145;28;20057;-70
2022/07/14 00:53:49;;;;;;;10.57;3.67;;;;;;;19.03;64.23;101993.84;5035324;28;20481;-70
2022/07/14 00:56:14;;;;;;;11.15;3.30;;;;;;;19.06;64.14;101982.19;5035121;28;20038;-70
2022/07/14 00:58:40;;;;;;;12.82;3.20;;;;;;;19.05;63.67;101989.34;5034888;28;20027;-70
2022/07/14 01:01:05;;;;;;;13.88;3.13;;;;;;;18.99;64.19;101997.44;5034985;28;20057;-69
2022/07/14 01:03:30;;;;;;;9.13;3.22;;;;;;;18.76;64.77;102003.81;5035135;28;20486;-69
2022/07/14 01:05:56;;;;;;;9.88;3.30;;;;;;;18.67;65.33;101995.78;5034847;28;20053;-70
2022/07/14 01:08:21;;;;;;;9.05;3.20;;;;;;;18.74;65.19;101994.88;5034845;28;20026;-70
2022/07/14 01:10:47;;;;;;;10.15;3.30;;;;;;;18.76;64.66;101998.44;5034918;28;20514;-70
2022/07/14 01:13:12;;;;;;;11.77;4.30;;;;;;;18.70;64.69;102001.13;5034549;28;20017;-69
2022/07/14 01:15:37;;;;;;;10.48;3.72;;;;;;;18.57;65.59;102004.72;5034370;28;20427;-69
2022/07/14 01:18:03;;;;;;;11.85;3.47;;;;;;;18.45;65.93;102008.31;5034226;28;20037;-69
2022/07/14 01:20:29;;;;;;;7.80;3.03;;;;;;;18.30;66.26;102008.41;5034524;28;20041;-69
2022/07/14 01:22:54;;;;;;;13.40;3.55;;;;;;;18.29;66.53;102006.63;5034592;28;20113;-70
2022/07/14 01:25:20;;;;;;;7.90;2.92;;;;;;;18.33;66.67;102019.09;5034502;28;20036;-69
2022/07/14 01:27:46;;;;;;;12.27;3.33;;;;;;;18.36;66.61;102023.53;5034425;28;20138;-70
2022/07/14 01:30:12;;;;;;;9.35;2.90;;;;;;;18.34;66.75;102026.22;5034281;28;20111;-69
2022/07/14 01:32:37;;;;;;;10.30;3.22;;;;;;;18.36;66.71;102026.22;5034340;28;20029;-69
2022/07/14 01:35:04;;;;;;;8.27;2.92;;;;;;;18.45;66.41;102026.19;5034072;28;20021;-69
2022/07/14 01:37:30;;;;;;;12.38;3.40;;;;;;;18.46;66.53;102019.97;5034223;28;20026;-69
2022/07/14 01:39:55;;;;;;;6.45;3.05;;;;;;;18.58;65.84;102013.66;5034105;28;20029;-70
2022/07/14 01:42:21;;;;;;;10.85;3.42;;;;;;;18.65;65.35;102015.41;5034037;28;20021;-69
2022/07/14 01:44:46;;;;;;;13.05;3.38;;;;;;;18.60;65.73;102011.88;5034278;28;20100;-69
2022/07/14 01:47:13;;;;;;;9.55;3.33;;;;;;;18.62;65.70;102018.97;5034155;28;20036;-69
2022/07/14 01:49:38;;;;;;;11.68;3.40;;;;;;;18.49;65.95;102018.13;5034342;28;20041;-69
2022/07/14 01:52:04;;;;;;;10.93;3.45;;;;;;;18.52;66.51;102019.91;5034101;28;20092;-69
2022/07/14 01:54:29;;;;;;;11.77;3.50;;;;;;;18.55;66.15;102005.66;5034128;28;20047;-70
2022/07/14 01:56:55;;;;;;;10.32;3.17;;;;;;;18.56;66.43;102005.63;5033723;28;20034;-69
2022/07/14 01:59:20;;;;;;;9.52;3.30;;;;;;;18.64;66.04;102002.94;5033737;28;20021;-69
2022/07/14 02:01:46;;;;;;;11.43;3.60;;;;;;;18.53;66.54;102002.97;5033878;28;20445;-70
2022/07/14 02:04:13;;;;;;;12.68;3.58;;;;;;;18.55;67.08;102006.53;5033647;28;20029;-69
2022/07/14 02:06:52;;;;;;;12.35;3.70;;;;;;;18.48;66.89;102013.69;5033843;28;20087;-69
2022/07/14 02:09:21;;;;;;;14.45;3.80;;;;;;;18.42;67.55;102010.16;5033728;28;20151;-69
2022/07/14 02:14:33;;;;;;;12.00;3.55;;;;;;;18.35;67.57;101997.69;5033872;28;20068;-70
2022/07/14 02:16:59;;;;;;;15.60;3.63;;;;;;;18.33;67.55;102002.13;5033516;28;20117;-69
2022/07/14 02:19:24;;;;;;;13.43;3.80;;;;;;;18.37;67.51;102011.94;5033451;28;20128;-69
2022/07/14 02:21:51;;;;;;;14.88;3.97;;;;;;;18.34;67.28;101996.78;5033407;28;20022;-69
2022/07/14 02:24:17;;;;;;;11.07;3.90;;;;;;;18.26;67.35;102006.63;5033348;28;20025;-69
2022/07/14 02:26:42;;;;;;;13.65;3.75;;;;;;;18.27;67.50;101995.00;5033477;28;20068;-69
2022/07/14 02:29:08;;;;;;;17.85;4.10;;;;;;;18.23;67.64;102007.50;5033537;28;20368;-69
2022/07/14 02:31:34;;;;;;;10.23;3.50;;;;;;;18.24;67.28;102001.28;5033304;28;20040;-69
2022/07/14 02:34:00;;;;;;;9.48;3.60;;;;;;;18.24;67.50;102006.63;5033199;28;20147;-70
2022/07/14 02:36:26;;;;;;;15.27;3.88;;;;;;;18.27;67.40;102008.38;5033501;28;20492;-69
2022/07/14 02:38:51;;;;;;;14.05;4.22;;;;;;;18.21;67.44;101995.94;5032966;28;20032;-70
2022/07/14 02:41:17;;;;;;;11.43;3.60;;;;;;;18.22;67.67;101996.81;5033139;28;20030;-70
2022/07/14 02:43:42;;;;;;;13.98;3.90;;;;;;;18.18;67.54;101984.34;5033386;28;20031;-69
2022/07/14 02:46:08;;;;;;;11.68;3.88;;;;;;;18.14;67.33;101982.56;5033273;28;20021;-70
2022/07/14 02:48:33;;;;;;;15.43;4.05;;;;;;;18.06;67.54;101990.59;5033041;28;20018;-70
2022/07/14 02:51:04;;;;;;;17.00;4.35;;;;;;;17.97;67.83;101987.94;5033103;28;20063;-70
2022/07/14 02:53:29;;;;;;;16.15;4.28;;;;;;;17.87;68.13;101989.75;5032822;28;20506;-70
2022/07/14 02:55:55;;;;;;;11.35;3.92;;;;;;;17.85;67.90;101986.16;5033107;28;20029;-69
2022/07/14 02:58:22;;;;;;;14.68;3.80;;;;;;;17.73;68.37;101987.06;5033081;28;20025;-70
2022/07/14 03:00:48;;;;;;;10.85;3.60;;;;;;;17.62;68.40;101983.47;5032840;28;20041;-70
2022/07/14 03:03:13;;;;;;;13.50;3.60;;;;;;;17.57;68.63;101987.06;5033092;28;20017;-69
2022/07/14 03:05:39;;;;;;;16.23;4.20;;;;;;;17.37;69.15;101985.25;5032727;28;20027;-69
2022/07/14 03:08:07;;;;;;;12.13;3.90;;;;;;;17.43;69.67;101985.28;5032829;28;20030;-69
2022/07/14 03:10:32;;;;;;;13.75;4.25;;;;;;;17.28;69.57;101974.56;5032701;28;20021;-69
2022/07/14 03:12:58;;;;;;;15.93;4.82;;;;;;;17.28;69.48;101971.88;5033068;28;20041;-69
2022/07/14 03:15:23;;;;;;;10.55;3.80;;;;;;;17.24;69.45;101980.78;5032704;28;20037;-69
2022/07/14 03:17:49;;;;;;;14.82;4.00;;;;;;;17.34;69.10;101974.56;5032444;28;20053;-70
2022/07/14 03:20:14;;;;;;;11.30;3.63;;;;;;;17.34;69.03;101968.31;5032855;28;20046;-69
2022/07/14 03:22:40;;;;;;;12.18;3.75;;;;;;;17.27;69.07;101959.44;5032750;28;20116;-70
2022/07/14 03:25:05;;;;;;;12.68;4.00;;;;;;;17.22;68.79;101962.09;5032969;28;20431;-70
2022/07/14 03:27:31;;;;;;;11.23;3.47;;;;;;;17.24;69.02;101957.63;5032664;28;20022;-69
2022/07/14 03:29:57;;;;;;;11.57;4.05;;;;;;;17.22;69.27;101955.88;5032858;28;20025;-69
2022/07/14 03:32:22;;;;;;;12.70;3.72;;;;;;;17.05;69.38;101949.63;5032600;28;20029;-70
2022/07/14 03:34:48;;;;;;;10.90;3.58;;;;;;;17.06;69.48;101946.94;5032573;28;20022;-69
2022/07/14 03:37:13;;;;;;;10.80;3.70;;;;;;;17.01;69.25;101954.94;5032686;28;20025;-70
2022/07/14 03:39:39;;;;;;;11.55;3.80;;;;;;;17.19;68.94;101953.19;5033762;28;20167;-70
2022/07/14 03:42:05;;;;;;;11.02;3.83;;;;;;;17.18;68.80;101946.06;5036499;28;20158;-69
2022/07/14 03:44:31;;;;;;;9.10;3.63;;;;;;;17.19;68.51;101956.75;5036455;28;20575;-69
2022/07/14 03:46:56;;;;;;;12.00;4.00;;;;;;;17.24;68.03;101949.63;5036401;28;20152;-70
2022/07/14 03:49:22;;;;;;;13.15;3.88;;;;;;;17.18;68.53;101951.41;5036586;28;20109;-70
2022/07/14 03:51:47;;;;;;;14.18;3.90;;;;;;;17.15;69.00;101962.97;5036157;28;20390;-69
2022/07/14 03:54:13;;;;;;;11.48;3.53;;;;;;;17.28;68.51;101963.88;5036162;28;20390;-70
2022/07/14 03:56:38;;;;;;;12.52;4.05;;;;;;;17.24;68.63;101976.34;5036250;28;20105;-69
2022/07/14 03:59:05;;;;;;;12.90;3.83;;;;;;;17.11;68.80;101971.84;5036248;28;20479;-69
2022/07/14 04:01:30;;;;;;;13.93;4.32;;;;;;;17.03;69.24;101973.63;5036071;28;20439;-70
2022/07/14 04:03:56;;;;;;;15.60;4.50;;;;;;;17.09;69.16;101978.09;5036072;28;20033;-69
2022/07/14 04:06:21;;;;;;;15.07;4.22;;;;;;;16.99;69.38;101977.16;5035683;28;20029;-69
2022/07/14 04:08:47;;;;;;;22.83;4.68;;;;;;;16.96;69.59;101974.53;5035990;28;20533;-70
2022/07/14 04:11:13;;;;;;;13.32;4.18;;;;;;;16.99;69.54;101979.84;5034698;28;20219;-69
2022/07/14 04:13:38;;;;;;;14.30;4.40;;;;;;;17.02;69.05;101982.53;5035896;28;20100;-69
2022/07/14 04:16:04;;;;;;;12.27;3.92;;;;;;;17.14;69.00;101981.66;5035735;28;20215;-70
2022/07/14 04:18:30;;;;;;;14.27;4.18;;;;;;;17.23;68.86;101979.91;5035802;28;20046;-69
2022/07/14 04:20:55;;;;;;;12.60;3.88;;;;;;;17.37;68.39;101968.34;5035623;28;20573;-70
2022/07/14 04:23:21;;;;;;;11.45;3.85;;;;;;;17.44;67.78;101967.47;5035899;28;20018;-70
2022/07/14 04:25:47;;;;;;;14.30;4.07;;;;;;;17.43;67.76;101974.59;5035686;28;20036;-69
2022/07/14 04:28:14;;;;;;;13.88;4.32;;;;;;;17.37;68.04;101974.56;5035589;28;20033;-70
2022/07/14 04:30:39;;;;;;;13.43;4.10;;;;;;;17.34;67.93;101969.22;5035654;28;20076;-69
2022/07/14 04:33:05;;;;;;;13.23;4.30;;;;;;;17.25;68.56;101970.09;5035433;28;20041;-69
2022/07/14 04:35:30;;;;;;;11.68;3.85;;;;;;;17.20;68.84;101985.22;5035239;28;20018;-70
2022/07/14 04:37:55;;;;;;;11.55;4.30;;;;;;;17.27;68.89;101970.13;5035348;28;20028;-70
2022/07/14 04:40:21;;;;;;;15.30;3.80;;;;;;;17.44;68.50;101970.13;5035318;28;20061;-70
2022/07/14 04:42:46;;;;;;;15.95;4.30;;;;;;;17.57;68.03;101974.59;5035374;28;20130;-69
2022/07/14 04:45:11;;;;;;;12.77;4.28;;;;;;;17.59;67.61;101971.91;5035327;28;20101;-69
2022/07/14 04:47:37;;;;;;;12.65;4.82;;;;;;;17.57;67.96;101979.03;5035434;28;20483;-69
2022/07/14 04:52:48;;;;;;;15.90;5.20;;;;;;;17.57;68.07;101977.25;5034837;28;20099;-69
2022/07/14 04:55:14;;;;;;;15.43;4.30;;;;;;;17.68;67.98;101978.13;5033756;28;20024;-69
2022/07/14 04:57:39;;;;;;;15.48;4.38;;;;;;;17.70;67.53;101968.34;5034964;28;20030;-69
2022/07/14 05:00:06;;;;;;;14.85;4.05;;;;;;;17.68;67.80;101972.78;5034986;28;20025;-70
2022/07/14 05:02:32;;;;;;;14.93;4.07;;;;;;;17.76;67.79;101984.38;5034799;28;20032;-69
2022/07/14 05:04:58;;;;;;;15.23;4.53;;;;;;;17.83;67.78;101976.38;5034818;28;20025;-70
2022/07/14 05:07:24;;;;;;;15.50;4.40;;;;;;;17.84;67.68;101984.41;5034975;28;20026;-69
2022/07/14 05:09:49;;;;;;;14.55;4.32;;;;;;;17.80;68.16;101987.06;5034819;28;20037;-69
2022/07/14 05:12:16;;;;;;;14.20;4.47;;;;;;;17.75;67.98;101987.06;5034779;28;20033;-70
2022/07/14 05:14:42;;;;;;;15.45;4.40;;;;;;;17.66;68.91;102001.31;5034770;28;20029;-70
2022/07/14 05:17:07;;;;;;;17.67;4.80;;;;;;;17.67;68.99;102000.41;5034387;28;20030;-69
2022/07/14 05:19:33;;;;;;;15.55;4.53;;;;;;;17.71;69.28;101987.94;5034334;28;20128;-69
2022/07/14 05:21:58;;;;;;;19.30;4.50;;;;;;;17.77;69.17;101995.97;5034598;28;20104;-69
2022/07/14 05:24:24;;;;;;;18.77;4.68;;;;;;;17.86;69.13;101990.66;5034498;28;20029;-70
2022/07/14 05:26:49;;;;;;;17.15;4.47;;;;;;;17.94;68.66;101991.53;5034529;28;20051;-70
2022/07/14 05:29:15;;;;;;;12.10;4.32;;;;;;;18.08;68.01;101994.19;5034435;28;20071;-70
2022/07/14 05:31:40;;;;;;;16.52;4.57;;;;;;;18.10;68.25;101988.81;5034332;28;20463;-69
2022/07/14 05:34:06;;;;;;;17.48;5.03;;;;;;;18.14;68.49;101985.25;5034164;28;20395;-69
2022/07/14 05:36:31;;;;;;;16.85;4.60;;;;;;;18.22;67.55;101986.13;5034592;28;20061;-70
2022/07/14 05:38:57;;;;;;;16.08;4.30;;;;;;;18.23;67.23;101977.19;5034217;28;20494;-69
2022/07/14 05:41:22;;;;;;;14.85;4.65;;;;;;;18.21;67.25;101981.66;5034274;28;20386;-69
2022/07/14 05:43:48;;;;;;;13.23;4.47;;;;;;;18.41;67.54;101985.16;5034222;28;20557;-70
2022/07/14 05:46:14;;;;;;;16.77;4.65;;;;;;;18.59;66.65;101986.88;5034083;28;20030;-69
2022/07/14 05:48:40;;;;;;;16.58;4.55;;;;;;;18.74;66.98;101988.63;5034128;28;20037;-70
2022/07/14 05:51:08;;;;;;;15.85;5.00;;;;;;;18.82;66.23;101988.59;5034045;28;20040;-70
2022/07/14 05:53:35;;;;;;;17.90;4.70;;;;;;;19.00;65.77;102005.44;5034283;28;20029;-70
2022/07/14 05:56:01;;;;;;;11.90;4.60;;;;;;;19.11;64.52;101994.69;5033924;28;20463;-69
2022/07/14 05:58:27;;;;;;;21.75;4.55;;;;;;;19.16;64.43;101995.53;5033843;28;20108;-70
2022/07/14 06:00:52;;;;;;;14.10;4.30;;;;;;;19.25;63.47;101983.88;5033885;28;20128;-69
2022/07/14 06:03:19;;;;;;;18.45;5.30;;;;;;;19.34;62.89;101985.59;5033680;28;20171;-69
2022/07/14 06:05:45;;;;;;;17.63;4.70;;;;;;;19.51;62.35;101978.31;5033620;28;20035;-69
2022/07/14 06:08:10;;;;;;;14.23;4.75;;;;;;;19.62;62.32;101972.91;5033705;28;20021;-70
2022/07/14 06:10:36;;;;;;;17.55;4.65;;;;;;;19.77;62.81;101979.00;5033806;28;20026;-70
2022/07/14 06:13:03;;;;;;;20.55;5.03;;;;;;;19.97;61.92;101972.56;5033724;28;20475;-70
2022/07/14 06:15:29;;;;;;;16.90;4.40;;;;;;;20.09;61.57;101980.50;5033766;28;20026;-70
2022/07/14 06:17:54;;;;;;;14.18;4.07;;;;;;;20.22;59.87;101987.50;5033331;28;20048;-70
2022/07/14 06:20:20;;;;;;;16.75;4.60;;;;;;;20.34;59.24;101977.50;5033613;28;20056;-70
2022/07/14 06:22:45;;;;;;;18.98;4.28;;;;;;;20.52;58.35;101980.03;5033706;28;20031;-70
2022/07/14 06:25:11;;;;;;;18.90;4.40;;;;;;;20.57;57.89;101977.28;5033522;28;20472;-70
2022/07/14 06:27:36;;;;;;;19.60;4.40;;;;;;;20.62;57.59;101970.06;5033382;28;20108;-69
2022/07/14 06:30:04;;;;;;;14.98;4.28;;;;;;;20.65;57.48;101970.03;5033205;28;20048;-70
2022/07/14 06:32:29;;;;;;;19.67;4.47;;;;;;;20.68;57.40;101976.22;5033557;28;20103;-70
2022/07/14 06:34:55;;;;;;;18.15;4.60;;;;;;;20.78;56.54;101978.81;5033186;28;20478;-70
2022/07/14 06:37:20;;;;;;;16.63;4.63;;;;;;;20.83;56.73;101975.16;5033537;28;20084;-70
2022/07/14 06:39:45;;;;;;;18.10;5.25;;;;;;;20.94;55.40;101983.03;5031609;28;20025;-70
2022/07/14 06:42:13;;;;;;;18.00;5.13;;;;;;;21.16;55.46;101989.03;5033099;28;20029;-70
2022/07/14 06:44:39;;;;;;;22.10;5.50;;;;;;;21.21;55.15;101989.84;5033107;28;20087;-70
2022/07/14 06:47:04;;;;;;;19.65;5.35;;;;;;;21.32;54.41;101989.69;5033096;28;20463;-70
2022/07/14 06:49:30;;;;;;;19.70;5.60;;;;;;;21.52;54.32;101982.19;5033168;28;20067;-70
2022/07/14 06:51:55;;;;;;;14.10;4.85;;;;;;;21.61;53.79;101987.41;5032916;28;20534;-70
2022/07/14 06:54:21;;;;;;;15.25;4.53;;;;;;;21.90;53.65;101991.41;5033060;28;20071;-70
2022/07/14 06:56:46;;;;;;;16.58;4.75;;;;;;;22.09;53.34;101982.06;5032993;28;20033;-70
2022/07/14 06:59:12;;;;;;;13.15;4.80;;;;;;;22.25;52.74;101980.88;5032912;28;20041;-70
2022/07/14 07:01:37;;;;;;;17.40;4.60;;;;;;;22.31;51.40;101985.28;5032872;28;20033;-70
2022/07/14 07:04:03;;;;;;;16.30;4.30;;;;;;;22.44;51.48;101977.81;5032932;28;20029;-70
2022/07/14 07:06:44;;;;;;;17.85;4.47;;;;;;;22.46;50.50;101973.31;5032955;28;20033;-70
2022/07/14 07:09:13;;;;;;;14.48;4.03;;;;;;;22.60;50.11;101973.00;5033047;28;20056;-70
2022/07/14 07:11:39;;;;;;;16.20;3.90;;;;;;;22.77;50.20;101975.34;5048064;28;20029;-70
2022/07/14 07:14:05;;;;;;;14.90;4.38;;;;;;;22.88;49.00;101978.69;5033153;28;20134;-70
2022/07/14 07:16:30;;;;;;;11.93;4.05;;;;;;;22.97;49.73;101984.78;5037000;28;20099;-70
2022/07/14 07:18:56;;;;;;;19.13;4.28;;;;;;;23.08;49.01;101989.03;5036571;28;20049;-70
2022/07/14 07:21:21;;;;;;;16.15;4.05;;;;;;;23.25;48.41;101973.34;5036770;28;20033;-70
2022/07/14 07:23:48;;;;;;;14.70;4.20;;;;;;;23.39;47.97;101976.63;5037055;28;20037;-70
2022/07/14 07:26:15;;;;;;;14.93;4.18;;;;;;;23.54;48.38;101977.16;5036827;28;20032;-71
2022/07/14 07:28:40;;;;;;;14.85;4.45;;;;;;;23.70;47.29;101974.06;5036931;28;20403;-70
2022/07/14 07:31:06;;;;;;;13.02;3.95;;;;;;;23.86;46.10;101966.47;5036621;28;20422;-70
2022/07/14 07:33:32;;;;;;;13.95;3.95;;;;;;;23.98;45.80;101976.00;5036675;28;20585;-70
2022/07/14 07:35:58;;;;;;;13.00;3.97;;;;;;;23.98;45.80;101957.13;5036472;28;20051;-71
2022/07/14 07:38:24;;;;;;;16.38;3.92;;;;;;;24.13;46.74;101963.94;5036557;28;20022;-70
2022/07/14 07:40:49;;;;;;;15.68;3.97;;;;;;;24.29;45.81;101957.16;5036512;28;20033;-71
2022/07/14 07:43:15;;;;;;;20.08;4.13;;;;;;;24.45;44.86;101961.25;5036307;28;20507;-70
2022/07/14 07:45:40;;;;;;;14.48;4.13;;;;;;;24.60;44.16;101956.31;5036599;28;20103;-70
2022/07/14 07:48:06;;;;;;;10.45;3.70;;;;;;;24.80;44.04;101945.78;5036306;28;20026;-70
2022/07/14 07:50:32;;;;;;;18.55;3.75;;;;;;;24.66;43.67;101945.28;5036500;28;20040;-70
2022/07/14 07:52:58;;;;;;;14.45;3.70;;;;;;;24.83;42.79;101945.66;5036340;28;20030;-70
2022/07/14 07:55:24;;;;;;;11.00;3.47;;;;;;;24.84;42.10;101949.22;5036378;28;20026;-70
2022/07/14 07:57:49;;;;;;;11.25;3.30;;;;;;;24.91;41.84;101945.41;5036032;28;20385;-70
2022/07/14 08:00:14;;;;;;;15.07;4.00;;;;;;;25.15;43.01;101947.38;5035955;28;20233;-70
2022/07/14 08:02:52;;;;;;;15.65;4.07;;;;;;;25.41;42.20;101945.63;5036260;28;20458;-69
2022/07/14 08:05:19;;;;;;;10.32;3.28;;;;;;;25.45;42.93;101941.88;5035880;28;20391;-70
2022/07/14 08:07:44;;;;;;;10.20;3.55;;;;;;;25.47;41.29;101932.75;5036321;28;20034;-70
2022/07/14 08:10:10;;;;;;;12.80;3.13;;;;;;;25.63;41.31;101930.41;5035743;28;20034;-70
2022/07/14 08:12:35;;;;;;;10.15;3.05;;;;;;;25.78;40.30;101933.56;5036190;28;20064;-70
2022/07/14 08:15:01;;;;;;;9.73;3.40;;;;;;;25.95;39.25;101936.53;5035784;28;20061;-69
2022/07/14 08:17:26;;;;;;;14.02;3.20;;;;;;;26.06;39.38;101925.34;5035882;28;20541;-69
2022/07/14 08:19:52;;;;;;;11.57;3.20;;;;;;;25.95;38.15;101921.19;5035442;28;20050;-69
2022/07/14 08:22:25;;;;;;;8.50;3.00;;;;;;;25.98;37.71;101917.47;5035759;28;20037;-69
2022/07/14 08:24:51;;;;;;;10.52;3.33;;;;;;;26.26;38.50;101916.47;5035404;28;20018;-67
2022/07/14 08:27:16;;;;;;;13.52;3.30;;;;;;;26.51;38.69;101911.00;5035773;28;20048;-67
2022/07/14 08:29:42;;;;;;;10.68;3.30;;;;;;;26.44;37.84;101913.09;5035723;28;20119;-66
2022/07/14 08:32:07;;;;;;;12.93;3.15;;;;;;;26.67;38.24;101902.22;5035453;28;20491;-67
2022/07/14 08:34:33;;;;;;;11.43;3.38;;;;;;;26.91;37.43;101907.59;5035391;28;20033;-67
2022/07/14 08:37:01;;;;;;;9.82;3.20;;;;;;;26.96;37.22;101911.00;5035432;28;20026;-67
2022/07/14 08:39:27;;;;;;;9.32;3.10;;;;;;;27.15;35.76;101908.44;5035233;28;20044;-67
2022/07/14 08:41:54;;;;;;;12.27;3.67;;;;;;;27.25;36.33;101914.38;5035535;28;20091;-67
2022/07/14 08:44:20;;;;;;;11.98;3.53;;;;;;;27.03;37.63;101919.78;5035559;28;20112;-67
2022/07/14 08:46:47;;;;;;;11.10;3.50;;;;;;;27.33;36.84;101921.25;5035512;28;20104;-66
2022/07/14 08:49:14;;;;;;;12.27;3.30;;;;;;;27.00;36.85;101909.06;5035144;28;20491;-67
2022/07/14 08:51:42;;;;;;;9.68;3.00;;;;;;;27.18;36.02;101903.78;5035223;28;20057;-67
2022/07/14 08:54:09;;;;;;;12.68;3.20;;;;;;;27.20;36.26;101901.03;5034990;28;20052;-67
2022/07/14 08:56:35;;;;;;;12.80;3.30;;;;;;;27.52;36.64;101905.06;5035099;28;20036;-67
2022/07/14 08:59:00;;;;;;;11.48;3.25;;;;;;;27.72;34.99;101901.47;5035058;28;20037;-67
2022/07/14 09:01:26;;;;;;;9.95;3.03;;;;;;;27.68;35.38;101902.56;5034893;28;20079;-66
2022/07/14 09:03:52;;;;;;;8.65;2.92;;;;;;;28.03;35.35;101892.84;5033725;28;20087;-69
2022/07/14 09:06:46;;;;;;;9.48;2.88;;;;;;;28.34;34.51;101895.03;5034704;28;20379;-69
2022/07/14 09:09:22;;;;;;;9.35;3.10;;;;;;;28.55;33.03;101903.16;5035143;28;20095;-69
2022/07/14 09:11:49;;;;;;;11.30;3.10;;;;;;;28.52;33.15;101906.03;5034867;28;20120;-69
2022/07/14 09:14:14;;;;;;;9.48;2.88;;;;;;;28.38;32.48;101893.97;5034693;28;20140;-69
2022/07/14 09:16:39;;;;;;;8.77;3.00;;;;;;;28.16;32.48;101895.91;5034760;28;20300;-69
2022/07/14 09:19:10;;;;;;;8.45;2.92;;;;;;;28.25;32.27;101892.75;5034106;28;20495;-69
2022/07/14 09:21:38;;;;;;;7.80;2.78;;;;;;;28.12;32.33;101902.41;5033456;28;20493;-69
2022/07/14 09:24:09;;;;;;;9.63;2.90;;;;;;;28.23;32.85;101894.66;5034144;28;20056;-69
2022/07/14 09:26:48;;;;;;;8.13;2.70;;;;;;;28.28;32.82;101899.88;5034179;28;20083;-69
2022/07/14 09:29:25;;;;;;;7.72;2.60;;;;;;;28.55;32.10;101904.03;5033998;28;20034;-69
2022/07/14 09:31:51;;;;;;;8.80;2.60;;;;;;;28.60;31.06;101887.50;5034584;28;20098;-69
2022/07/14 09:34:26;;;;;;;9.40;2.50;;;;;;;28.99;29.98;101883.81;5034172;28;20537;-70
2022/07/14 09:36:51;;;;;;;8.60;2.83;;;;;;;29.21;30.08;101898.13;5033804;28;20148;-69
2022/07/14 09:39:18;;;;;;;9.25;2.63;;;;;;;29.21;29.08;101881.78;5034418;28;20112;-69
2022/07/14 09:41:54;;;;;;;6.72;2.47;;;;;;;29.34;29.78;101888.38;5034161;28;20033;-69
2022/07/14 09:44:21;;;;;;;8.55;2.50;;;;;;;29.53;29.33;101885.56;5034148;28;20402;-69
2022/07/14 09:46:57;;;;;;;9.55;2.60;;;;;;;29.79;27.77;101886.94;5034174;28;20037;-69
2022/07/14 09:49:27;;;;;;;7.53;2.35;;;;;;;29.68;27.36;101878.47;5034069;28;20526;-69
2022/07/14 09:51:52;;;;;;;9.45;2.70;;;;;;;30.06;27.62;101889.13;5034279;28;20107;-70
2022/07/14 09:54:36;;;;;;;7.93;2.90;;;;;;;30.27;29.57;101885.25;5034007;28;20022;-69
2022/07/14 09:57:03;;;;;;;7.93;3.08;;;;;;;30.22;29.63;101879.19;5033897;28;20475;-69
2022/07/14 09:59:28;;;;;;;10.00;3.40;;;;;;;30.25;28.54;101889.06;5033870;28;20025;-70
2022/07/14 10:01:54;;;;;;;6.88;2.90;;;;;;;30.22;28.98;101894.66;5033749;28;20461;-69
2022/07/14 10:04:21;;;;;;;8.95;2.90;;;;;;;30.60;28.44;101887.94;5033734;28;20034;-70
2022/07/14 10:06:47;;;;;;;9.57;3.95;;;;;;;30.70;27.39;101888.28;5033625;28;20558;-70
2022/07/14 10:09:13;;;;;;;11.07;4.20;;;;;;;31.00;27.22;101891.13;5033683;28;20117;-69
2022/07/14 10:11:40;;;;;;;7.07;3.20;;;;;;;30.81;28.29;101887.72;5033632;28;20048;-69
2022/07/14 10:14:05;;;;;;;8.10;3.50;;;;;;;30.64;27.28;101892.25;5033589;28;20468;-69
2022/07/14 10:16:33;;;;;;;9.23;3.20;;;;;;;30.77;27.71;101895.19;5033411;28;20039;-69
2022/07/14 10:19:00;;;;;;;6.05;2.60;;;;;;;30.56;27.52;101894.53;5033532;28;20037;-69
2022/07/14 10:21:27;;;;;;;7.63;2.80;;;;;;;30.76;27.83;101893.44;5033435;28;20037;-69
2022/07/14 10:23:54;;;;;;;6.60;2.30;;;;;;;30.85;27.02;101894.75;5033279;28;20414;-69
2022/07/14 10:26:20;;;;;;;6.50;2.50;;;;;;;30.81;26.33;101895.91;5033561;28;20657;-69
2022/07/14 10:28:45;;;;;;;8.70;2.30;;;;;;;30.77;26.85;101891.59;5033356;28;20033;-69
2022/07/14 10:31:25;;;;;;;8.15;2.40;;;;;;;30.73;28.31;101890.88;5033451;28;20112;-69
2022/07/14 10:33:59;;;;;;;8.38;2.30;;;;;;;30.47;26.89;101886.88;5033143;28;20451;-69
2022/07/14 10:36:39;;;;;;;6.75;2.10;;;;;;;30.46;25.74;101896.03;5033133;28;20446;-69
2022/07/14 10:39:26;;;;;;;5.90;2.10;;;;;;;30.51;27.89;101895.78;5033399;28;20029;-69
2022/07/14 10:42:19;;;;;;;7.70;1.98;;;;;;;30.31;26.11;101899.59;5033112;28;20073;-69
2022/07/14 10:44:46;;;;;;;11.18;2.38;;;;;;;29.97;25.54;101893.25;5033303;28;20053;-69
2022/07/14 10:47:15;;;;;;;10.30;2.10;;;;;;;30.21;25.42;101892.91;5033057;28;20033;-69
2022/07/14 10:50:07;;;;;;;5.10;2.00;;;;;;;30.27;26.50;101892.56;5032136;28;20025;-69
2022/07/14 10:52:38;;;;;;;5.20;2.22;;;;;;;30.27;25.44;101890.72;5033477;28;20033;-69
2022/07/14 10:55:18;;;;;;;6.43;2.10;;;;;;;30.54;25.34;101890.16;5032857;28;20024;-69
2022/07/14 10:57:58;;;;;;;7.40;2.20;;;;;;;31.15;26.43;101886.63;5033171;28;20032;-69
2022/07/14 11:03:22;;;;;;;7.70;2.10;;;;;;;31.48;25.85;101878.28;5033016;28;20049;-66
2022/07/14 11:06:16;;;;;;;5.22;2.10;;;;;;;31.45;26.47;101883.94;5032780;28;20029;-69
2022/07/14 11:08:44;;;;;;;7.18;2.50;;;;;;;31.62;23.96;101877.44;5027123;28;20037;-68
2022/07/14 11:11:18;;;;;;;8.65;2.20;;;;;;;31.98;24.79;101885.22;5032971;28;20029;-69
2022/07/14 11:14:02;;;;;;;6.90;2.20;;;;;;;32.16;25.05;101891.38;5032770;28;20033;-68
2022/07/14 11:16:50;;;;;;;6.53;2.22;;;;;;;32.60;23.09;101885.81;5032875;28;20117;-68
2022/07/14 11:19:24;;;;;;;8.02;2.28;;;;;;;32.38;24.21;101885.47;5032689;28;20054;-69
2022/07/14 11:22:28;;;;;;;8.55;2.42;;;;;;;32.83;24.30;101887.03;5032765;28;20382;-68
2022/07/14 11:25:00;;;;;;;6.65;2.22;;;;;;;32.67;24.79;101886.28;4971882;28;20389;-68
2022/07/14 11:27:32;;;;;;;6.38;2.28;;;;;;;32.69;24.10;101886.19;4972009;28;20062;-69